Terminal Aerodrome Forecast
Issued by NWS Tulsa, OK

Home | Current Version | Previous Version | Text Only | Print | Product List | Glossary On
Versions: 1 2 3 4 5 6 7 8 9 10 11 12 13
000
FTUS44 KTSA 282320
TAFTUL
TAF
KTUL 282320Z 2900/2924 12009KT P6SM FEW070 FEW250
     FM290200 11004KT P6SM SCT250
     FM291600 05004KT P6SM SCT040=

USA.gov is the U.S. government's official web portal to all federal, state and local government web resources and services.